Dawson, Texas
Current Conditions -  °F | °C
As of 9:15 PM on Tuesday 25 Nov 2014 (Local Time) from KLXY Reporting Station
Clear Clear  
Wind Chill: 45°   Ceiling: Unl
Heat Index: 45°   Visibility: 10mi
Dew Point: 32°   Wind: 0mph
Humidity: 60%   Direction: NA
Pressure: 30.17"   Gusts: NA
Location:  31.89°N, 96.71°W
Report Text: KLXY 260315Z AUTO 00000KT 10SM CLR 07/00 A3017 RMK AO2 T00740001
Loading
Personal Weather Stations






























Interactive Weather Map New forecast layout! Learn more

10-Day Weather Forecast

Advertisements
Track Severe Weather on mobile